createdAt,value
2019-05-13T00:02:14.620Z,72.00
2019-05-13T00:04:44.299Z,72.30
2019-05-13T00:07:13.833Z,73.50
2019-05-13T00:09:44.242Z,73.50
2019-05-13T00:12:13.870Z,73.10
2019-05-13T00:14:43.456Z,74.20
2019-05-13T00:17:14.635Z,73.90
2019-05-13T00:19:44.330Z,74.70
2019-05-13T00:22:14.150Z,74.90
2019-05-13T00:24:44.318Z,75.10
2019-05-13T00:27:14.208Z,75.00
2019-05-13T00:29:44.374Z,75.60
2019-05-13T00:32:13.968Z,75.20
2019-05-13T00:34:44.547Z,75.60
2019-05-13T00:37:14.801Z,76.70
2019-05-13T00:39:44.362Z,76.00
2019-05-13T00:42:14.349Z,76.00
2019-05-13T00:44:44.485Z,76.30
2019-05-13T00:47:14.001Z,76.70
2019-05-13T00:49:43.780Z,77.60
2019-05-13T00:52:14.297Z,77.60
2019-05-13T00:54:44.219Z,77.30
2019-05-13T00:57:13.669Z,77.70
2019-05-13T00:59:44.316Z,78.10
2019-05-13T01:02:14.069Z,78.30
2019-05-13T01:04:44.158Z,78.00
2019-05-13T01:07:24.815Z,78.00
2019-05-13T01:09:44.944Z,77.20
2019-05-13T01:12:14.300Z,77.20
2019-05-13T01:14:43.639Z,76.50
2019-05-13T01:17:14.193Z,76.80
2019-05-13T01:19:43.698Z,77.00
2019-05-13T01:22:13.575Z,76.70
2019-05-13T01:24:44.221Z,77.10
2019-05-13T01:27:14.109Z,77.20
2019-05-13T01:29:43.652Z,77.70
2019-05-13T01:32:14.410Z,77.20
2019-05-13T01:34:44.334Z,77.10
2019-05-13T01:37:13.779Z,76.70
2019-05-13T01:39:43.742Z,76.30
2019-05-13T01:42:13.800Z,76.30
2019-05-13T01:44:43.818Z,76.30
2019-05-13T01:47:13.487Z,76.20
2019-05-13T01:49:44.026Z,75.60
2019-05-13T01:52:13.775Z,75.60
2019-05-13T01:54:44.228Z,76.00
2019-05-13T01:57:14.365Z,75.90
2019-05-13T01:59:43.906Z,76.10
2019-05-13T02:02:13.747Z,76.80
2019-05-13T02:04:43.920Z,75.40
2019-05-13T02:07:14.429Z,75.50
2019-05-13T02:09:44.441Z,75.50
2019-05-13T02:12:13.897Z,75.10
2019-05-13T02:14:44.407Z,75.50
2019-05-13T02:17:14.656Z,75.70
2019-05-13T02:19:44.283Z,75.80
2019-05-13T02:22:14.616Z,75.10
2019-05-13T02:24:44.759Z,75.50
2019-05-13T02:27:14.358Z,75.70
2019-05-13T02:29:43.818Z,76.40
2019-05-13T02:32:13.857Z,75.60
2019-05-13T02:34:44.023Z,76.30
2019-05-13T02:37:13.520Z,76.20
2019-05-13T02:39:43.044Z,76.50
2019-05-13T02:42:13.395Z,76.70
2019-05-13T02:44:43.703Z,75.80
2019-05-13T02:47:13.278Z,75.90
2019-05-13T02:49:43.194Z,75.60
2019-05-13T02:52:13.378Z,74.90
2019-05-13T02:54:43.024Z,75.30
2019-05-13T02:57:12.632Z,75.40
2019-05-13T02:59:42.468Z,75.50
2019-05-13T03:02:12.539Z,75.10
2019-05-13T03:04:43.459Z,75.50
2019-05-13T03:07:13.073Z,75.90
2019-05-13T03:09:42.450Z,76.00
2019-05-13T03:12:12.981Z,75.90
2019-05-13T03:14:48.027Z,76.30
2019-05-13T03:17:15.448Z,77.00
2019-05-13T03:19:44.805Z,77.80
2019-05-13T03:22:14.139Z,77.40
2019-05-13T03:24:43.488Z,78.20
2019-05-13T03:27:13.094Z,78.30
2019-05-13T03:29:43.355Z,79.00
2019-05-13T03:32:16.435Z,79.40
2019-05-13T03:34:45.796Z,79.80
2019-05-13T03:37:16.575Z,80.10
2019-05-13T03:39:46.749Z,79.60
2019-05-13T03:42:16.324Z,79.40
2019-05-13T03:44:45.746Z,79.20
2019-05-13T03:47:15.850Z,79.00
2019-05-13T03:49:45.259Z,79.30
2019-05-13T03:52:14.657Z,79.00
2019-05-13T03:54:44.376Z,79.50
2019-05-13T03:57:13.772Z,79.40
2019-05-13T03:59:43.809Z,80.00
2019-05-13T04:02:13.490Z,80.10
2019-05-13T04:04:43.010Z,79.80
2019-05-13T04:07:13.430Z,80.00
2019-05-13T04:09:43.040Z,80.90
2019-05-13T04:12:13.430Z,80.50
2019-05-13T04:14:43.813Z,81.30
2019-05-13T04:17:13.230Z,80.20
2019-05-13T04:19:42.656Z,80.20
2019-05-13T04:22:13.026Z,80.20
2019-05-13T04:24:42.971Z,80.20
2019-05-13T04:27:13.401Z,80.30
2019-05-13T04:29:43.469Z,80.20
2019-05-13T04:32:13.286Z,79.70
2019-05-13T04:34:42.937Z,79.70
2019-05-13T04:37:13.414Z,79.20
2019-05-13T04:39:51.106Z,79.00
2019-05-13T04:42:14.305Z,79.00
2019-05-13T04:44:43.900Z,78.60
2019-05-13T04:47:13.403Z,78.40
2019-05-13T04:49:43.097Z,78.20
2019-05-13T04:52:13.343Z,78.10
2019-05-13T04:54:43.644Z,78.10
2019-05-13T04:57:13.639Z,77.70
2019-05-13T04:59:44.524Z,76.90
2019-05-13T05:02:50.185Z,76.70
2019-05-13T05:05:52.731Z,75.90
2019-05-13T05:08:55.708Z,74.90
2019-05-13T05:12:03.182Z,75.20
2019-05-13T05:15:04.014Z,75.20
2019-05-13T05:18:11.643Z,74.60
2019-05-13T05:20:54.835Z,74.10
2019-05-13T05:23:42.256Z,73.40
2019-05-13T05:26:25.097Z,73.30
2019-05-13T05:29:17.423Z,72.90
2019-05-13T05:31:54.097Z,73.00
2019-05-13T05:34:43.252Z,72.40
2019-05-13T05:38:06.234Z,72.20
2019-05-13T05:40:37.746Z,72.10
2019-05-13T05:43:11.394Z,71.50
2019-05-13T05:45:41.278Z,71.20
2019-05-13T05:48:12.361Z,69.80
2019-05-13T05:50:43.158Z,70.50
2019-05-13T05:53:15.243Z,70.60
2019-05-13T05:55:45.436Z,69.30
2019-05-13T05:58:15.732Z,68.70
2019-05-13T06:00:46.517Z,68.00
2019-05-13T06:03:15.842Z,66.90
2019-05-13T06:05:46.439Z,65.90
2019-05-13T06:08:17.735Z,64.70
2019-05-13T06:10:50.449Z,65.00
2019-05-13T06:13:18.275Z,65.30
2019-05-13T06:15:47.768Z,63.80
2019-05-13T06:18:17.260Z,64.60
2019-05-13T06:20:46.746Z,63.70
2019-05-13T06:23:16.223Z,63.40
2019-05-13T06:25:45.747Z,63.80
2019-05-13T06:28:15.084Z,64.50
2019-05-13T06:30:44.702Z,64.60
2019-05-13T06:33:14.238Z,63.70
2019-05-13T06:35:44.910Z,64.40
2019-05-13T06:38:14.355Z,63.90
2019-05-13T06:40:59.019Z,64.70
2019-05-13T06:43:14.786Z,63.80
2019-05-13T06:45:44.228Z,64.60
2019-05-13T06:48:13.661Z,63.80
2019-05-13T06:50:43.018Z,64.20
2019-05-13T06:53:12.873Z,63.90
2019-05-13T06:55:42.373Z,64.60
2019-05-13T06:58:11.875Z,65.00
2019-05-13T07:00:42.758Z,65.50
2019-05-13T07:03:12.965Z,66.00
2019-05-13T07:05:42.932Z,67.40
2019-05-13T07:08:12.357Z,67.40
2019-05-13T07:10:41.763Z,67.80
2019-05-13T07:13:11.595Z,66.60
2019-05-13T07:15:41.709Z,66.80
2019-05-13T07:18:11.825Z,65.20
2019-05-13T07:20:42.576Z,64.50
2019-05-13T07:23:32.022Z,63.10
2019-05-13T07:26:02.025Z,63.90
2019-05-13T07:28:32.407Z,63.50
2019-05-13T07:31:02.312Z,63.10
2019-05-13T07:33:32.327Z,62.80
2019-05-13T07:36:03.573Z,62.40
2019-05-13T07:38:33.357Z,60.50
2019-05-13T07:41:04.472Z,61.90
2019-05-13T07:43:34.108Z,61.50
2019-05-13T07:46:03.516Z,59.70
2019-05-13T07:48:33.140Z,59.70
2019-05-13T07:51:04.369Z,60.10
2019-05-13T07:53:33.593Z,57.80
2019-05-13T07:56:03.002Z,57.70
2019-05-13T07:58:37.010Z,57.90
2019-05-13T08:01:03.610Z,59.40
2019-05-13T08:03:32.981Z,59.60
2019-05-13T08:06:02.353Z,58.70
2019-05-13T08:08:32.442Z,56.90
2019-05-13T08:11:01.974Z,56.30
2019-05-13T08:13:31.627Z,56.90
2019-05-13T08:16:02.011Z,57.70
2019-05-13T08:18:32.164Z,57.30
2019-05-13T08:21:02.273Z,56.30
2019-05-13T08:23:32.524Z,53.50
2019-05-13T08:26:02.767Z,53.20
2019-05-13T08:28:32.564Z,54.10
2019-05-13T08:31:02.432Z,53.60
2019-05-13T08:33:32.357Z,52.70
2019-05-13T08:36:02.037Z,52.40
2019-05-13T08:38:32.084Z,52.60
2019-05-13T08:41:02.091Z,53.50
2019-05-13T08:43:31.891Z,53.10
2019-05-13T08:46:02.238Z,53.70
2019-05-13T08:48:32.335Z,54.60
2019-05-13T08:51:03.131Z,53.10
2019-05-13T08:53:32.797Z,53.10
2019-05-13T08:56:02.285Z,52.40
2019-05-13T08:58:32.209Z,50.70
2019-05-13T09:01:02.434Z,49.60
2019-05-13T09:03:32.775Z,49.90
2019-05-13T09:06:03.199Z,45.30
2019-05-13T09:08:32.609Z,46.60
2019-05-13T09:11:02.411Z,47.00
2019-05-13T09:13:32.982Z,46.30
2019-05-13T09:16:02.789Z,47.60
2019-05-13T09:18:32.515Z,48.00
2019-05-13T09:21:02.942Z,46.00
2019-05-13T09:23:32.358Z,47.20
2019-05-13T09:26:02.580Z,46.60
2019-05-13T09:28:32.594Z,47.00
2019-05-13T09:31:02.343Z,42.20
2019-05-13T09:33:32.624Z,43.50
2019-05-13T09:36:02.504Z,39.90
2019-05-13T09:38:32.762Z,40.70
2019-05-13T09:41:02.429Z,41.60
2019-05-13T09:43:31.836Z,40.40
2019-05-13T09:46:02.050Z,41.30
2019-05-13T09:48:32.121Z,40.40
2019-05-13T09:51:02.423Z,40.10
2019-05-13T09:53:32.718Z,39.90
2019-05-13T09:56:02.675Z,39.60
2019-05-13T09:58:33.076Z,39.60
2019-05-13T10:01:02.999Z,39.70
2019-05-13T10:03:33.246Z,39.90
2019-05-13T10:06:02.902Z,37.50
2019-05-13T10:08:32.888Z,35.30
2019-05-13T10:11:02.653Z,36.50
2019-05-13T10:13:32.199Z,37.30
2019-05-13T10:16:01.644Z,35.10
2019-05-13T10:18:32.655Z,38.50
2019-05-13T10:21:03.368Z,39.90
2019-05-13T10:23:33.476Z,36.40
2019-05-13T10:26:07.160Z,38.30
2019-05-13T10:28:37.138Z,37.20
2019-05-13T10:31:06.745Z,37.30
2019-05-13T10:33:36.287Z,37.50
2019-05-13T10:36:05.789Z,38.30
2019-05-13T10:38:35.206Z,34.90
2019-05-13T10:41:04.735Z,35.00
2019-05-13T10:43:40.164Z,35.70
2019-05-13T10:46:05.714Z,36.60
2019-05-13T10:48:35.156Z,35.10
2019-05-13T10:51:04.836Z,36.80
2019-05-13T10:53:34.184Z,37.20
2019-05-13T10:56:03.778Z,37.20
2019-05-13T10:58:33.246Z,36.60
2019-05-13T11:01:03.275Z,36.90
2019-05-13T11:03:33.286Z,36.50
2019-05-13T11:06:03.194Z,37.50
2019-05-13T11:08:33.401Z,33.20
2019-05-13T11:11:03.427Z,32.30
2019-05-13T11:16:04.138Z,32.20
2019-05-13T11:18:33.525Z,32.50
2019-05-13T11:21:02.972Z,32.60
2019-05-13T11:23:32.578Z,34.20
2019-05-13T11:26:03.248Z,36.20
2019-05-13T11:28:33.309Z,36.40
2019-05-13T11:31:03.506Z,35.30
2019-05-13T11:33:33.124Z,34.50
2019-05-13T11:36:03.576Z,32.60
2019-05-13T11:38:33.221Z,33.50
2019-05-13T11:41:03.297Z,33.30
2019-05-13T11:43:33.461Z,32.50
2019-05-13T11:46:03.698Z,34.00
2019-05-13T11:48:33.116Z,34.50
2019-05-13T11:51:03.904Z,34.50
2019-05-13T11:53:37.163Z,33.60
2019-05-13T11:56:04.938Z,32.80
2019-05-13T11:58:34.277Z,32.60
2019-05-13T12:01:04.486Z,32.50
2019-05-13T12:03:33.840Z,33.90
2019-05-13T12:06:03.361Z,32.80
2019-05-13T12:08:33.882Z,34.50
2019-05-13T12:11:05.527Z,35.30
2019-05-13T12:13:35.349Z,35.20
2019-05-13T12:16:04.774Z,35.00
2019-05-13T12:18:34.233Z,33.70
2019-05-13T12:21:04.402Z,33.60
2019-05-13T12:23:33.847Z,32.10
2019-05-13T12:26:04.238Z,33.50
2019-05-13T12:28:34.472Z,34.60
2019-05-13T12:31:03.837Z,35.50
2019-05-13T12:33:33.202Z,36.20
2019-05-13T12:36:02.621Z,36.80
2019-05-13T12:38:33.434Z,36.60
2019-05-13T12:41:05.058Z,36.70
2019-05-13T12:43:34.164Z,35.80
2019-05-13T12:46:03.807Z,34.30
2019-05-13T12:48:33.243Z,34.50
2019-05-13T12:51:03.289Z,33.90
2019-05-13T12:53:32.969Z,34.40
2019-05-13T12:56:03.491Z,32.60
2019-05-13T12:58:34.174Z,32.80
2019-05-13T13:01:03.941Z,33.00
2019-05-13T13:03:33.355Z,32.40
2019-05-13T13:06:25.138Z,34.00
2019-05-13T13:08:43.775Z,34.90
2019-05-13T13:11:05.246Z,35.10
2019-05-13T13:13:57.394Z,35.70
2019-05-13T13:16:06.174Z,35.40
2019-05-13T13:18:36.250Z,33.20
2019-05-13T13:21:07.740Z,32.20
2019-05-13T13:23:36.912Z,30.80
2019-05-13T13:26:13.919Z,31.70
2019-05-13T13:28:37.487Z,33.00
2019-05-13T13:31:06.908Z,35.10
2019-05-13T13:33:36.307Z,35.80
2019-05-13T13:36:05.938Z,35.00
2019-05-13T13:38:35.992Z,34.00
2019-05-13T13:41:05.576Z,33.70
2019-05-13T13:43:36.992Z,32.80
2019-05-13T13:46:17.157Z,32.00
2019-05-13T13:48:37.519Z,31.80
2019-05-13T13:51:07.022Z,31.30
2019-05-13T13:53:36.495Z,33.10
2019-05-13T13:56:05.913Z,33.30
2019-05-13T13:58:35.347Z,34.90
2019-05-13T14:01:17.509Z,33.40
2019-05-13T14:03:38.795Z,33.00
2019-05-13T14:06:08.272Z,33.70
2019-05-13T14:06:28.555Z,32.50
2019-05-13T14:08:37.649Z,31.60
2019-05-13T14:11:06.993Z,32.00
2019-05-13T14:13:36.456Z,31.50
2019-05-13T14:16:21.393Z,32.30
2019-05-13T14:18:36.980Z,32.70
2019-05-13T14:21:06.459Z,33.70
2019-05-13T14:23:37.877Z,33.50
2019-05-13T14:26:07.027Z,33.90
2019-05-13T14:28:36.422Z,34.80
2019-05-13T14:31:05.891Z,34.10
2019-05-13T14:33:35.769Z,32.90
2019-05-13T14:36:05.384Z,32.10
2019-05-13T14:38:35.187Z,30.50
2019-05-13T14:41:04.676Z,31.20
2019-05-13T14:43:34.122Z,32.20
2019-05-13T14:46:03.532Z,32.10
2019-05-13T14:48:33.282Z,33.00
2019-05-13T14:51:02.845Z,33.70
2019-05-13T14:53:32.581Z,34.00
2019-05-13T14:56:03.100Z,35.40
2019-05-13T14:58:33.039Z,35.40
2019-05-13T15:01:15.830Z,34.10
2019-05-13T15:03:33.750Z,33.80
2019-05-13T15:06:03.432Z,32.80
2019-05-13T15:08:33.241Z,33.20
2019-05-13T15:11:02.704Z,33.20
2019-05-13T15:13:32.354Z,33.00
2019-05-13T15:16:02.107Z,33.10
2019-05-13T15:18:32.800Z,33.60
2019-05-13T15:21:02.764Z,33.60
2019-05-13T15:23:32.197Z,33.30
2019-05-13T15:26:02.369Z,33.10
2019-05-13T15:28:32.154Z,33.40
2019-05-13T15:31:01.642Z,34.00
2019-05-13T15:33:32.778Z,33.70
2019-05-13T15:36:02.524Z,33.70
2019-05-13T15:38:32.398Z,34.50
2019-05-13T15:41:02.199Z,35.00
2019-05-13T15:43:32.129Z,36.50
2019-05-13T15:46:02.049Z,33.80
2019-05-13T15:48:31.882Z,33.10
2019-05-13T15:51:02.318Z,32.90
2019-05-13T15:53:32.168Z,32.30
2019-05-13T15:56:02.705Z,33.60
2019-05-13T15:58:39.773Z,34.10
2019-05-13T16:01:03.361Z,32.90
2019-05-13T16:03:32.852Z,34.20
2019-05-13T16:06:03.240Z,33.70
2019-05-13T16:08:32.866Z,32.40
2019-05-13T16:11:02.588Z,30.50
2019-05-13T16:13:32.056Z,29.60
2019-05-13T16:16:01.992Z,31.30
2019-05-13T16:18:31.903Z,32.90
2019-05-13T16:21:02.008Z,33.10
2019-05-13T16:23:32.285Z,33.70
2019-05-13T16:26:02.864Z,33.50
2019-05-13T16:28:33.029Z,35.00
2019-05-13T16:31:02.798Z,35.00
2019-05-13T16:33:32.242Z,35.40
2019-05-13T16:36:02.642Z,36.00
2019-05-13T16:38:33.096Z,36.70
2019-05-13T16:41:02.642Z,35.90
2019-05-13T16:43:32.394Z,35.20
2019-05-13T16:46:01.771Z,34.60
2019-05-13T16:48:32.359Z,33.90
2019-05-13T16:51:01.961Z,34.20
2019-05-13T16:53:31.743Z,34.60
2019-05-13T16:56:01.910Z,35.40
2019-05-13T16:58:32.522Z,36.00
2019-05-13T17:01:02.864Z,37.30
2019-05-13T17:03:32.313Z,35.20
2019-05-13T17:06:02.315Z,31.00
2019-05-13T17:08:32.200Z,31.10
2019-05-13T17:11:02.360Z,31.70
2019-05-13T17:13:32.358Z,32.00
2019-05-13T17:16:01.858Z,33.70
2019-05-13T17:18:32.340Z,34.10
2019-05-13T17:21:02.220Z,34.10
2019-05-13T17:23:31.578Z,33.60
2019-05-13T17:26:02.577Z,31.50
2019-05-13T17:28:34.195Z,31.80
2019-05-13T17:31:03.471Z,30.90
2019-05-13T17:33:32.990Z,29.90
2019-05-13T17:36:02.426Z,30.40
2019-05-13T17:38:32.259Z,32.20
2019-05-13T17:41:02.596Z,33.60
2019-05-13T17:43:32.318Z,34.60
2019-05-13T17:46:02.438Z,36.10
2019-05-13T17:48:33.095Z,35.70
2019-05-13T17:51:02.735Z,36.80
2019-05-13T17:53:32.656Z,36.50
2019-05-13T17:56:02.734Z,37.10
2019-05-13T17:58:32.202Z,37.80
2019-05-13T18:01:01.924Z,38.60
2019-05-13T18:03:32.225Z,40.00
2019-05-13T18:06:02.428Z,40.80
2019-05-13T18:08:32.361Z,40.90
2019-05-13T18:11:02.668Z,41.50
2019-05-13T18:13:32.591Z,42.00
2019-05-13T18:16:02.842Z,42.70
2019-05-13T18:18:42.560Z,43.00
2019-05-13T18:21:03.365Z,43.10
2019-05-13T18:23:32.740Z,43.50
2019-05-13T18:26:02.164Z,44.00
2019-05-13T18:28:31.809Z,44.30
2019-05-13T18:31:01.882Z,44.30
2019-05-13T18:33:32.171Z,44.40
2019-05-13T18:36:02.125Z,45.00
2019-05-13T18:38:31.588Z,45.60
2019-05-13T18:41:01.943Z,45.80
2019-05-13T18:43:32.043Z,46.00
2019-05-13T18:46:02.132Z,46.60
2019-05-13T18:48:32.371Z,47.00
2019-05-13T18:51:01.900Z,47.40
2019-05-13T18:53:32.086Z,47.30
2019-05-13T18:56:02.170Z,47.90
2019-05-13T18:58:31.904Z,48.30
2019-05-13T19:01:01.597Z,48.40
2019-05-13T19:03:32.266Z,48.80
2019-05-13T19:06:01.853Z,49.50
2019-05-13T19:08:32.111Z,50.10
2019-05-13T19:11:01.990Z,50.70
2019-05-13T19:13:32.400Z,51.50
2019-05-13T19:16:02.616Z,52.00
2019-05-13T19:18:32.343Z,52.60
2019-05-13T19:21:02.068Z,52.80
2019-05-13T19:23:31.690Z,54.00
2019-05-13T19:26:01.933Z,53.90
2019-05-13T19:28:31.953Z,54.00
2019-05-13T19:31:02.177Z,54.20
2019-05-13T19:33:31.869Z,54.70
2019-05-13T19:36:01.690Z,54.90
2019-05-13T19:38:32.092Z,55.40
2019-05-13T19:41:01.948Z,55.90
2019-05-13T19:43:31.663Z,56.10
2019-05-13T19:46:01.707Z,56.40
2019-05-13T19:48:32.637Z,56.90
2019-05-13T19:51:02.302Z,57.10
2019-05-13T19:53:32.043Z,57.40
2019-05-13T19:56:01.738Z,57.80
2019-05-13T19:58:32.314Z,58.10
2019-05-13T20:01:01.892Z,58.10
2019-05-13T20:03:31.928Z,58.10
2019-05-13T20:06:02.150Z,58.20
2019-05-13T20:08:32.170Z,58.10
2019-05-13T20:11:02.238Z,58.50
2019-05-13T20:13:31.759Z,59.20
2019-05-13T20:16:01.656Z,59.90
2019-05-13T20:18:31.987Z,61.10
2019-05-13T20:21:01.749Z,61.70
2019-05-13T20:23:32.153Z,62.30
2019-05-13T20:26:01.710Z,62.80
2019-05-13T20:28:31.800Z,61.90
2019-05-13T20:31:01.950Z,60.80
2019-05-13T20:33:32.183Z,60.10
2019-05-13T20:36:02.172Z,59.90
2019-05-13T20:38:31.815Z,60.00
2019-05-13T20:41:01.618Z,60.00
2019-05-13T20:43:32.815Z,59.90
2019-05-13T20:46:02.357Z,59.70
2019-05-13T20:48:32.101Z,59.90
2019-05-13T20:51:02.558Z,60.30
2019-05-13T20:53:32.098Z,60.40
2019-05-13T20:56:01.951Z,60.50
2019-05-13T20:58:32.010Z,60.00
2019-05-13T21:01:02.437Z,60.40
2019-05-13T21:03:32.110Z,61.30
2019-05-13T21:06:01.625Z,60.70
2019-05-13T21:08:32.184Z,61.80
2019-05-13T21:11:02.413Z,62.10
2019-05-13T21:13:32.032Z,62.40
2019-05-13T21:16:02.233Z,62.90
2019-05-13T21:18:31.954Z,63.50
2019-05-13T21:21:01.568Z,64.80
2019-05-13T21:23:31.399Z,65.80
2019-05-13T21:26:01.987Z,69.90
2019-05-13T21:28:31.320Z,73.50
2019-05-13T21:31:02.217Z,77.10
2019-05-13T21:33:31.842Z,81.30
2019-05-13T21:36:01.837Z,83.70
2019-05-13T21:38:32.452Z,86.70
2019-05-13T21:41:02.095Z,88.30
2019-05-13T21:43:32.325Z,90.10
2019-05-13T21:46:02.258Z,90.70
2019-05-13T21:48:32.421Z,90.90
2019-05-13T21:51:02.092Z,91.50
2019-05-13T21:53:32.676Z,92.50
2019-05-13T21:56:02.472Z,93.30
2019-05-13T21:58:31.891Z,93.80
2019-05-13T22:01:01.779Z,94.00
2019-05-13T22:03:33.446Z,94.00
2019-05-13T22:06:02.369Z,94.00
2019-05-13T22:08:32.201Z,94.40
2019-05-13T22:11:02.024Z,94.70
2019-05-13T22:13:31.758Z,94.90
2019-05-13T22:16:01.808Z,95.40
2019-05-13T22:18:31.677Z,95.50
2019-05-13T22:21:01.666Z,95.70
2019-05-13T22:23:32.025Z,95.90
2019-05-13T22:26:01.999Z,95.90
2019-05-13T22:28:31.618Z,96.30
2019-05-13T22:31:01.565Z,96.50
2019-05-13T22:33:32.490Z,96.40
2019-05-13T22:36:02.128Z,96.30
2019-05-13T22:38:32.318Z,96.40
2019-05-13T22:41:02.057Z,96.90
2019-05-13T22:43:32.166Z,97.20
2019-05-13T22:46:01.786Z,97.70
2019-05-13T22:48:31.915Z,98.10
2019-05-13T22:51:01.651Z,98.40
2019-05-13T22:53:31.915Z,98.60
2019-05-13T22:56:01.677Z,98.60
2019-05-13T22:58:32.087Z,98.90
2019-05-13T23:01:02.510Z,99.10
2019-05-13T23:03:32.467Z,99.20
2019-05-13T23:06:01.937Z,99.60
2019-05-13T23:08:32.438Z,99.60
2019-05-13T23:11:02.286Z,99.70
2019-05-13T23:13:31.824Z,99.90
2019-05-13T23:16:02.392Z,99.90
2019-05-13T23:18:31.995Z,99.90
2019-05-13T23:21:02.334Z,99.90
2019-05-13T23:23:32.028Z,99.90
2019-05-13T23:26:01.509Z,99.90
2019-05-13T23:28:32.221Z,99.90
2019-05-13T23:31:01.904Z,99.90
2019-05-13T23:33:31.540Z,99.90
2019-05-13T23:36:01.681Z,99.90
2019-05-13T23:38:32.016Z,99.90
2019-05-13T23:41:02.245Z,99.90
2019-05-13T23:43:31.943Z,99.90
2019-05-13T23:46:01.497Z,99.90
2019-05-13T23:48:32.026Z,99.90
2019-05-13T23:51:01.716Z,99.90
2019-05-13T23:53:31.639Z,99.90
2019-05-13T23:56:02.131Z,99.90
2019-05-13T23:58:32.157Z,99.90
